createdAt,value
2018-09-25T00:00:51.002Z,95.91
2018-09-25T00:03:24.535Z,96.38
2018-09-25T00:05:58.125Z,96.18
2018-09-25T00:08:31.721Z,96.53
2018-09-25T00:11:05.128Z,96.12
2018-09-25T00:13:38.704Z,96.28
2018-09-25T00:16:12.209Z,96.20
2018-09-25T00:18:45.845Z,96.13
2018-09-25T00:21:19.204Z,96.35
2018-09-25T00:23:52.712Z,96.46
2018-09-25T00:26:26.112Z,96.46
2018-09-25T00:28:59.604Z,96.68
2018-09-25T00:31:33.192Z,96.54
2018-09-25T00:34:06.760Z,96.85
2018-09-25T00:36:40.301Z,96.81
2018-09-25T00:39:14.588Z,97.16
2018-09-25T00:41:48.132Z,97.14
2018-09-25T00:44:21.664Z,97.26
2018-09-25T00:46:55.199Z,97.10
2018-09-25T00:49:28.766Z,97.29
2018-09-25T00:52:02.214Z,97.10
2018-09-25T00:54:35.620Z,97.01
2018-09-25T00:57:09.180Z,97.40
2018-09-25T00:59:42.712Z,97.00
2018-09-25T01:02:16.235Z,97.16
2018-09-25T01:04:49.802Z,97.00
2018-09-25T01:07:23.252Z,96.72
2018-09-25T01:09:56.692Z,96.71
2018-09-25T01:12:30.142Z,96.37
2018-09-25T01:15:03.550Z,96.75
2018-09-25T01:17:37.166Z,96.26
2018-09-25T01:20:10.690Z,96.32
2018-09-25T01:22:44.273Z,95.97
2018-09-25T01:25:17.872Z,95.57
2018-09-25T01:27:51.224Z,95.67
2018-09-25T01:30:24.721Z,95.86
2018-09-25T01:32:58.149Z,95.57
2018-09-25T01:35:31.672Z,95.76
2018-09-25T01:38:05.277Z,95.84
2018-09-25T01:40:38.705Z,95.75
2018-09-25T01:43:12.368Z,95.46
2018-09-25T01:45:45.839Z,95.72
2018-09-25T01:48:19.249Z,95.66
2018-09-25T01:50:52.860Z,95.37
2018-09-25T01:53:26.317Z,95.73
2018-09-25T01:55:59.779Z,95.45
2018-09-25T01:58:33.284Z,95.47
2018-09-25T02:01:06.756Z,95.14
2018-09-25T02:03:40.120Z,94.93
2018-09-25T02:06:13.686Z,95.15
2018-09-25T02:08:47.312Z,94.80
2018-09-25T02:11:20.919Z,94.74
2018-09-25T02:13:54.372Z,94.67
2018-09-25T02:16:27.813Z,94.30
2018-09-25T02:19:01.345Z,94.46
2018-09-25T02:21:34.969Z,94.75
2018-09-25T02:24:08.425Z,94.62
2018-09-25T02:26:41.836Z,94.50
2018-09-25T02:29:15.243Z,94.36
2018-09-25T02:31:48.785Z,94.60
2018-09-25T02:34:22.324Z,95.39
2018-09-25T02:36:55.881Z,95.05
2018-09-25T02:39:29.317Z,95.68
2018-09-25T02:42:02.876Z,95.54
2018-09-25T02:44:36.501Z,95.56
2018-09-25T02:47:10.087Z,96.12
2018-09-25T02:49:43.653Z,96.61
2018-09-25T02:52:17.163Z,97.08
2018-09-25T02:54:50.809Z,97.22
2018-09-25T02:57:24.389Z,96.54
2018-09-25T02:59:57.976Z,96.28
2018-09-25T03:02:31.535Z,96.06
2018-09-25T03:05:05.078Z,96.41
2018-09-25T03:07:38.569Z,96.73
2018-09-25T03:10:12.181Z,97.11
2018-09-25T03:12:45.708Z,97.25
2018-09-25T03:15:19.181Z,96.93
2018-09-25T03:17:52.744Z,96.88
2018-09-25T03:20:26.176Z,96.73
2018-09-25T03:22:59.709Z,96.80
2018-09-25T03:25:33.205Z,97.25
2018-09-25T03:28:06.726Z,97.23
2018-09-25T03:30:40.260Z,97.37
2018-09-25T03:33:13.757Z,96.83
2018-09-25T03:35:47.285Z,96.88
2018-09-25T03:38:20.805Z,96.57
2018-09-25T03:40:54.292Z,96.64
2018-09-25T03:43:27.752Z,97.00
2018-09-25T03:46:01.160Z,97.09
2018-09-25T03:48:34.567Z,97.20
2018-09-25T03:51:07.986Z,97.42
2018-09-25T03:53:41.492Z,97.52
2018-09-25T03:56:14.887Z,97.49
2018-09-25T03:58:48.280Z,97.50
2018-09-25T04:01:21.836Z,97.33
2018-09-25T04:03:55.325Z,97.84
2018-09-25T04:06:28.736Z,98.08
2018-09-25T04:09:02.296Z,99.05
2018-09-25T04:11:35.703Z,98.87
2018-09-25T04:14:09.289Z,98.77
2018-09-25T04:16:42.685Z,98.53
2018-09-25T04:19:16.011Z,99.07
2018-09-25T04:21:49.609Z,99.42
2018-09-25T04:24:23.004Z,99.65
2018-09-25T04:26:56.517Z,99.38
2018-09-25T04:29:30.032Z,99.00
2018-09-25T04:32:03.501Z,98.64
2018-09-25T04:34:36.961Z,98.13
2018-09-25T04:37:10.333Z,98.13
2018-09-25T04:39:43.709Z,98.64
2018-09-25T04:42:17.342Z,98.37
2018-09-25T04:44:50.910Z,98.82
2018-09-25T04:47:24.412Z,99.20
2018-09-25T04:49:58.032Z,99.14
2018-09-25T04:52:31.624Z,99.13
2018-09-25T04:55:05.134Z,99.19
2018-09-25T04:57:38.634Z,99.46
2018-09-25T05:00:12.237Z,99.65
2018-09-25T05:02:45.968Z,99.54
2018-09-25T05:05:19.384Z,99.59
2018-09-25T05:07:52.808Z,99.37
2018-09-25T05:10:26.436Z,99.54
2018-09-25T05:12:59.925Z,99.97
2018-09-25T05:15:33.484Z,100.00
2018-09-25T05:18:07.180Z,100.00
2018-09-25T05:20:40.684Z,100.00
2018-09-25T05:23:14.124Z,100.00
2018-09-25T05:25:47.639Z,100.00
2018-09-25T05:28:21.124Z,100.00
2018-09-25T05:30:54.676Z,100.00
2018-09-25T05:33:28.285Z,100.00
2018-09-25T05:36:01.855Z,100.00
2018-09-25T05:38:35.358Z,100.00
2018-09-25T05:41:08.830Z,100.00
2018-09-25T05:43:42.277Z,100.00
2018-09-25T05:46:15.742Z,100.00
2018-09-25T05:48:49.411Z,100.00
2018-09-25T05:51:22.842Z,99.94
2018-09-25T05:53:56.331Z,99.72
2018-09-25T05:56:29.877Z,99.52
2018-09-25T05:59:03.323Z,99.79
2018-09-25T06:01:36.894Z,99.57
2018-09-25T06:04:10.428Z,98.99
2018-09-25T06:06:43.934Z,98.51
2018-09-25T06:09:17.446Z,98.64
2018-09-25T06:11:50.992Z,98.58
2018-09-25T06:14:24.532Z,99.18
2018-09-25T06:16:58.061Z,99.65
2018-09-25T06:19:31.600Z,99.34
2018-09-25T06:22:05.213Z,99.10
2018-09-25T06:24:38.784Z,98.80
2018-09-25T06:27:12.229Z,97.58
2018-09-25T06:29:45.761Z,96.78
2018-09-25T06:32:19.195Z,96.72
2018-09-25T06:34:52.820Z,96.84
2018-09-25T06:37:26.293Z,96.80
2018-09-25T06:39:59.726Z,96.31
2018-09-25T06:42:33.168Z,95.68
2018-09-25T06:45:06.706Z,94.96
2018-09-25T06:47:40.303Z,93.72
2018-09-25T06:50:13.912Z,93.02
2018-09-25T06:52:47.521Z,92.70
2018-09-25T06:55:21.176Z,92.19
2018-09-25T06:57:54.593Z,92.06
2018-09-25T07:00:28.094Z,92.21
2018-09-25T07:03:01.558Z,91.44
2018-09-25T07:05:35.139Z,91.25
2018-09-25T07:08:08.585Z,90.84
2018-09-25T07:10:42.144Z,90.28
2018-09-25T07:13:15.509Z,89.16
2018-09-25T07:15:49.121Z,88.42
2018-09-25T07:18:22.652Z,88.47
2018-09-25T07:20:56.185Z,87.95
2018-09-25T07:23:29.777Z,87.42
2018-09-25T07:26:03.341Z,87.75
2018-09-25T07:28:36.861Z,86.57
2018-09-25T07:31:10.414Z,85.96
2018-09-25T07:33:44.548Z,85.84
2018-09-25T07:36:18.116Z,85.22
2018-09-25T07:38:51.748Z,84.66
2018-09-25T07:41:25.145Z,84.40
2018-09-25T07:43:58.602Z,84.07
2018-09-25T07:46:32.242Z,83.85
2018-09-25T07:49:05.854Z,83.09
2018-09-25T07:51:39.467Z,83.14
2018-09-25T07:54:13.077Z,82.48
2018-09-25T07:56:46.625Z,81.94
2018-09-25T07:59:20.251Z,81.15
2018-09-25T08:01:53.863Z,81.06
2018-09-25T08:04:27.454Z,80.83
2018-09-25T08:07:00.967Z,81.14
2018-09-25T08:09:34.519Z,79.92
2018-09-25T08:12:08.137Z,79.16
2018-09-25T08:14:41.590Z,78.12
2018-09-25T08:17:15.060Z,78.24
2018-09-25T08:19:48.472Z,79.51
2018-09-25T08:22:21.999Z,78.51
2018-09-25T08:24:55.485Z,75.76
2018-09-25T08:27:28.920Z,76.32
2018-09-25T08:30:02.476Z,73.85
2018-09-25T08:32:36.014Z,73.47
2018-09-25T08:35:09.547Z,73.25
2018-09-25T08:37:43.041Z,73.47
2018-09-25T08:40:16.562Z,73.68
2018-09-25T08:42:50.174Z,72.88
2018-09-25T08:45:23.692Z,72.52
2018-09-25T08:47:57.164Z,69.84
2018-09-25T08:50:30.673Z,70.62
2018-09-25T08:53:04.298Z,70.74
2018-09-25T08:55:37.729Z,69.89
2018-09-25T08:58:11.654Z,69.49
2018-09-25T09:00:45.165Z,69.08
2018-09-25T09:03:18.739Z,68.80
2018-09-25T09:05:52.129Z,69.17
2018-09-25T09:08:25.642Z,69.13
2018-09-25T09:10:59.002Z,69.33
2018-09-25T09:13:32.536Z,69.49
2018-09-25T09:16:05.972Z,69.70
2018-09-25T09:18:39.564Z,69.10
2018-09-25T09:21:13.173Z,68.58
2018-09-25T09:23:47.661Z,68.67
2018-09-25T09:26:21.210Z,67.62
2018-09-25T09:28:54.768Z,67.12
2018-09-25T09:31:28.278Z,66.75
2018-09-25T09:34:01.814Z,65.49
2018-09-25T09:36:35.262Z,65.65
2018-09-25T09:39:08.661Z,61.81
2018-09-25T09:41:42.392Z,63.13
2018-09-25T09:44:15.966Z,63.13
2018-09-25T09:46:49.399Z,63.42
2018-09-25T09:49:23.043Z,63.29
2018-09-25T09:51:56.636Z,64.66
2018-09-25T09:54:30.252Z,64.22
2018-09-25T09:57:03.848Z,64.00
2018-09-25T09:59:37.465Z,64.96
2018-09-25T10:02:10.861Z,64.58
2018-09-25T10:04:44.337Z,62.55
2018-09-25T10:07:18.008Z,63.19
2018-09-25T10:09:51.432Z,62.74
2018-09-25T10:12:25.040Z,61.98
2018-09-25T10:14:58.692Z,63.18
2018-09-25T10:17:32.149Z,63.29
2018-09-25T10:20:05.617Z,63.48
2018-09-25T10:22:39.211Z,62.78
2018-09-25T10:25:12.710Z,61.82
2018-09-25T10:27:46.220Z,62.69
2018-09-25T10:30:19.695Z,61.80
2018-09-25T10:32:53.191Z,62.31
2018-09-25T10:35:26.633Z,62.42
2018-09-25T10:38:00.246Z,61.13
2018-09-25T10:40:33.906Z,62.00
2018-09-25T10:43:07.370Z,62.83
2018-09-25T10:45:40.985Z,62.31
2018-09-25T10:48:14.519Z,62.79
2018-09-25T10:50:47.920Z,62.52
2018-09-25T10:53:21.566Z,61.51
2018-09-25T10:55:55.197Z,61.75
2018-09-25T10:58:28.628Z,62.03
2018-09-25T11:01:02.188Z,62.59
2018-09-25T11:03:35.577Z,61.06
2018-09-25T11:06:09.187Z,61.96
2018-09-25T11:08:42.685Z,60.91
2018-09-25T11:11:16.153Z,60.71
2018-09-25T11:13:49.762Z,60.15
2018-09-25T11:16:23.373Z,60.94
2018-09-25T11:18:56.788Z,61.10
2018-09-25T11:21:30.275Z,62.77
2018-09-25T11:24:03.780Z,60.82
2018-09-25T11:26:37.358Z,62.32
2018-09-25T11:29:11.038Z,61.74
2018-09-25T11:31:44.481Z,60.56
2018-09-25T11:34:18.109Z,61.06
2018-09-25T11:36:51.469Z,61.20
2018-09-25T11:39:32.000Z,60.15
2018-09-25T11:42:05.442Z,59.88
2018-09-25T11:44:38.927Z,59.30
2018-09-25T11:47:12.402Z,60.23
2018-09-25T11:49:45.822Z,59.41
2018-09-25T11:52:19.371Z,60.29
2018-09-25T11:54:52.858Z,59.37
2018-09-25T11:57:26.378Z,59.94
2018-09-25T11:59:59.860Z,61.01
2018-09-25T12:02:33.329Z,61.55
2018-09-25T12:05:06.745Z,58.51
2018-09-25T12:07:40.336Z,59.84
2018-09-25T12:10:13.964Z,60.66
2018-09-25T12:12:47.481Z,61.48
2018-09-25T12:15:21.060Z,60.37
2018-09-25T12:17:54.554Z,60.44
2018-09-25T12:20:28.058Z,59.73
2018-09-25T12:23:01.592Z,59.30
2018-09-25T12:25:35.106Z,60.06
2018-09-25T12:28:08.469Z,61.22
2018-09-25T12:30:42.018Z,59.82
2018-09-25T12:33:15.641Z,60.07
2018-09-25T12:35:49.281Z,60.82
2018-09-25T12:38:22.784Z,61.78
2018-09-25T12:40:56.521Z,60.68
2018-09-25T12:43:29.986Z,59.75
2018-09-25T12:46:03.449Z,60.33
2018-09-25T12:48:36.980Z,60.23
2018-09-25T12:51:10.429Z,60.47
2018-09-25T12:53:44.556Z,59.84
2018-09-25T12:56:18.224Z,61.10
2018-09-25T12:58:51.736Z,60.25
2018-09-25T13:01:25.216Z,59.12
2018-09-25T13:03:58.688Z,60.92
2018-09-25T13:06:32.188Z,61.63
2018-09-25T13:09:05.759Z,59.14
2018-09-25T13:11:39.380Z,60.19
2018-09-25T13:14:12.959Z,60.95
2018-09-25T13:16:46.436Z,59.91
2018-09-25T13:19:19.985Z,61.29
2018-09-25T13:21:53.475Z,60.33
2018-09-25T13:24:26.976Z,60.08
2018-09-25T13:27:00.561Z,59.70
2018-09-25T13:29:34.125Z,60.97
2018-09-25T13:32:07.720Z,61.58
2018-09-25T13:34:41.203Z,61.77
2018-09-25T13:37:14.842Z,62.12
2018-09-25T13:39:48.466Z,62.86
2018-09-25T13:42:22.017Z,61.60
2018-09-25T13:44:55.600Z,62.85
2018-09-25T13:47:29.018Z,62.06
2018-09-25T13:50:02.416Z,62.83
2018-09-25T13:52:35.878Z,62.27
2018-09-25T13:55:09.267Z,61.93
2018-09-25T13:57:42.832Z,60.73
2018-09-25T14:00:16.359Z,60.81
2018-09-25T14:02:49.897Z,60.83
2018-09-25T14:05:23.470Z,62.58
2018-09-25T14:07:57.047Z,61.05
2018-09-25T14:10:30.648Z,61.59
2018-09-25T14:13:04.097Z,62.42
2018-09-25T14:15:37.669Z,62.18
2018-09-25T14:18:11.266Z,61.47
2018-09-25T14:20:44.744Z,60.37
2018-09-25T14:23:18.280Z,61.37
2018-09-25T14:25:51.706Z,60.97
2018-09-25T14:28:25.146Z,59.96
2018-09-25T14:30:58.544Z,60.86
2018-09-25T14:33:33.025Z,60.31
2018-09-25T14:36:06.492Z,60.62
2018-09-25T14:38:39.920Z,61.21
2018-09-25T14:41:13.495Z,60.80
2018-09-25T14:43:47.018Z,60.15
2018-09-25T14:46:20.540Z,61.54
2018-09-25T14:48:54.127Z,60.75
2018-09-25T14:51:27.669Z,63.66
2018-09-25T14:54:01.190Z,63.20
2018-09-25T14:56:34.631Z,63.42
2018-09-25T14:59:08.203Z,62.94
2018-09-25T15:01:41.636Z,63.72
2018-09-25T15:04:15.199Z,64.69
2018-09-25T15:06:48.601Z,64.74
2018-09-25T15:09:22.217Z,64.80
2018-09-25T15:11:55.832Z,63.81
2018-09-25T15:14:29.286Z,63.44
2018-09-25T15:17:02.771Z,62.81
2018-09-25T15:19:36.399Z,64.61
2018-09-25T15:22:10.177Z,63.85
2018-09-25T15:24:43.304Z,62.46
2018-09-25T15:27:16.940Z,64.11
2018-09-25T15:29:50.445Z,64.42
2018-09-25T15:32:23.913Z,64.03
2018-09-25T15:34:57.399Z,63.71
2018-09-25T15:37:30.875Z,63.63
2018-09-25T15:40:04.487Z,63.71
2018-09-25T15:42:38.124Z,63.70
2018-09-25T15:45:11.602Z,63.49
2018-09-25T15:47:45.080Z,63.79
2018-09-25T15:50:18.540Z,62.72
2018-09-25T15:52:51.992Z,64.07
2018-09-25T15:55:25.572Z,63.80
2018-09-25T15:57:59.030Z,64.34
2018-09-25T16:00:32.484Z,64.43
2018-09-25T16:03:06.023Z,64.24
2018-09-25T16:06:42.648Z,64.89
2018-09-25T16:09:16.096Z,64.92
2018-09-25T16:11:49.640Z,65.31
2018-09-25T16:14:23.259Z,65.62
2018-09-25T16:16:56.755Z,66.80
2018-09-25T16:19:30.165Z,66.52
2018-09-25T16:22:03.642Z,67.30
2018-09-25T16:24:37.176Z,66.53
2018-09-25T16:27:10.652Z,67.28
2018-09-25T16:29:44.176Z,68.04
2018-09-25T16:32:17.627Z,67.17
2018-09-25T16:34:51.286Z,68.51
2018-09-25T16:37:24.774Z,69.67
2018-09-25T16:39:58.230Z,68.68
2018-09-25T16:42:31.881Z,69.30
2018-09-25T16:45:05.523Z,69.68
2018-09-25T16:47:38.946Z,71.48
2018-09-25T16:50:12.490Z,71.41
2018-09-25T16:52:46.045Z,71.21
2018-09-25T16:55:19.475Z,71.29
2018-09-25T16:57:52.965Z,71.86
2018-09-25T17:00:26.477Z,72.40
2018-09-25T17:03:00.045Z,72.98
2018-09-25T17:05:33.620Z,74.02
2018-09-25T17:08:07.149Z,71.91
2018-09-25T17:10:40.556Z,74.54
2018-09-25T17:13:14.283Z,75.09
2018-09-25T17:15:47.837Z,75.54
2018-09-25T17:18:21.536Z,76.67
2018-09-25T17:20:55.156Z,77.17
2018-09-25T17:23:28.767Z,77.01
2018-09-25T17:26:02.309Z,77.80
2018-09-25T17:28:35.781Z,77.83
2018-09-25T17:31:09.446Z,77.57
2018-09-25T17:33:42.929Z,77.76
2018-09-25T17:36:16.329Z,78.02
2018-09-25T17:38:49.891Z,78.12
2018-09-25T17:41:23.355Z,78.51
2018-09-25T17:43:56.926Z,78.60
2018-09-25T17:46:30.541Z,80.13
2018-09-25T17:49:04.142Z,79.95
2018-09-25T17:51:38.184Z,79.84
2018-09-25T17:54:11.763Z,80.65
2018-09-25T17:56:45.225Z,81.50
2018-09-25T17:59:18.993Z,81.71
2018-09-25T18:01:52.880Z,82.04
2018-09-25T18:04:26.380Z,82.31
2018-09-25T18:06:59.840Z,82.43
2018-09-25T18:09:33.459Z,82.71
2018-09-25T18:12:13.680Z,82.75
2018-09-25T18:14:47.271Z,83.09
2018-09-25T18:17:20.705Z,82.96
2018-09-25T18:19:54.177Z,82.54
2018-09-25T18:22:27.769Z,82.90
2018-09-25T18:25:01.313Z,82.17
2018-09-25T18:27:34.898Z,82.41
2018-09-25T18:30:08.422Z,82.72
2018-09-25T18:32:41.960Z,82.51
2018-09-25T18:35:15.481Z,83.44
2018-09-25T18:37:48.894Z,83.24
2018-09-25T18:40:22.337Z,83.24
2018-09-25T18:42:55.823Z,83.90
2018-09-25T18:45:29.301Z,83.54
2018-09-25T18:48:02.937Z,83.28
2018-09-25T18:50:36.605Z,83.48
2018-09-25T18:53:10.033Z,83.95
2018-09-25T18:55:43.690Z,84.24
2018-09-25T18:58:17.284Z,84.28
2018-09-25T19:00:51.700Z,84.54
2018-09-25T19:03:25.123Z,84.67
2018-09-25T19:05:58.734Z,84.96
2018-09-25T19:08:32.498Z,84.84
2018-09-25T19:11:05.907Z,84.86
2018-09-25T19:13:39.434Z,85.40
2018-09-25T19:16:16.087Z,85.52
2018-09-25T19:18:49.544Z,85.57
2018-09-25T19:21:23.119Z,85.07
2018-09-25T19:23:56.661Z,85.63
2018-09-25T19:26:30.209Z,85.93
2018-09-25T19:29:03.646Z,85.88
2018-09-25T19:31:37.092Z,86.44
2018-09-25T19:34:10.491Z,86.60
2018-09-25T19:36:44.043Z,87.25
2018-09-25T19:39:17.493Z,87.01
2018-09-25T19:41:51.150Z,87.06
2018-09-25T19:44:24.616Z,87.12
2018-09-25T19:46:58.268Z,87.29
2018-09-25T19:49:31.692Z,87.12
2018-09-25T19:52:05.290Z,86.98
2018-09-25T19:54:38.822Z,87.51
2018-09-25T19:57:12.597Z,87.89
2018-09-25T19:59:46.378Z,88.14
2018-09-25T20:02:20.438Z,87.65
2018-09-25T20:04:54.921Z,88.02
2018-09-25T20:07:28.320Z,87.86
2018-09-25T20:10:01.799Z,88.21
2018-09-25T20:12:35.407Z,88.24
2018-09-25T20:15:08.896Z,88.21
2018-09-25T20:17:42.440Z,88.31
2018-09-25T20:20:16.032Z,89.08
2018-09-25T20:22:49.685Z,89.27
2018-09-25T20:25:23.217Z,89.47
2018-09-25T20:27:56.762Z,89.42
2018-09-25T20:30:30.360Z,89.50
2018-09-25T20:33:03.823Z,89.73
2018-09-25T20:35:37.370Z,90.12
2018-09-25T20:38:10.815Z,90.08
2018-09-25T20:40:44.224Z,90.33
2018-09-25T20:43:17.713Z,90.48
2018-09-25T20:45:51.230Z,90.08
2018-09-25T20:48:24.669Z,90.61
2018-09-25T20:50:58.301Z,90.52
2018-09-25T20:53:31.829Z,90.69
2018-09-25T20:56:05.343Z,91.10
2018-09-25T20:58:38.907Z,91.54
2018-09-25T21:01:12.437Z,91.67
2018-09-25T21:03:46.139Z,91.86
2018-09-25T21:06:19.617Z,91.61
2018-09-25T21:08:53.050Z,91.58
2018-09-25T21:11:26.663Z,92.10
2018-09-25T21:14:00.092Z,92.20
2018-09-25T21:16:33.683Z,92.13
2018-09-25T21:19:07.277Z,92.21
2018-09-25T21:21:40.773Z,92.34
2018-09-25T21:24:14.345Z,92.49
2018-09-25T21:26:47.976Z,92.60
2018-09-25T21:29:21.375Z,92.56
2018-09-25T21:31:54.999Z,92.28
2018-09-25T21:34:28.577Z,92.53
2018-09-25T21:37:02.044Z,92.17
2018-09-25T21:39:35.676Z,92.19
2018-09-25T21:42:09.223Z,92.31
2018-09-25T21:44:42.816Z,91.88
2018-09-25T21:47:16.269Z,91.84
2018-09-25T21:49:49.702Z,91.69
2018-09-25T21:52:23.288Z,92.36
2018-09-25T21:54:56.717Z,92.40
2018-09-25T21:57:30.434Z,92.33
2018-09-25T22:00:03.780Z,92.18
2018-09-25T22:02:37.216Z,92.11
2018-09-25T22:05:10.779Z,92.49
2018-09-25T22:07:44.324Z,92.65
2018-09-25T22:10:17.990Z,92.94
2018-09-25T22:12:51.413Z,93.28
2018-09-25T22:15:24.982Z,93.48
2018-09-25T22:17:58.388Z,93.89
2018-09-25T22:20:31.997Z,94.27
2018-09-25T22:23:05.458Z,94.31
2018-09-25T22:25:39.003Z,93.83
2018-09-25T22:28:12.560Z,93.78
2018-09-25T22:30:46.099Z,93.99
2018-09-25T22:33:19.637Z,93.88
2018-09-25T22:35:53.213Z,93.61
2018-09-25T22:38:26.633Z,93.64
2018-09-25T22:41:00.112Z,93.53
2018-09-25T22:43:33.656Z,93.77
2018-09-25T22:46:07.221Z,93.55
2018-09-25T22:48:40.822Z,93.80
2018-09-25T22:51:14.288Z,93.64
2018-09-25T22:53:47.784Z,93.32
2018-09-25T22:56:21.329Z,93.24
2018-09-25T22:58:54.904Z,93.27
2018-09-25T23:01:28.629Z,93.47
2018-09-25T23:04:02.090Z,93.32
2018-09-25T23:06:35.472Z,93.26
2018-09-25T23:09:09.397Z,93.25
2018-09-25T23:11:42.841Z,93.68
2018-09-25T23:14:16.255Z,93.82
2018-09-25T23:16:49.665Z,93.41
2018-09-25T23:19:23.237Z,93.62
2018-09-25T23:21:56.607Z,93.62
2018-09-25T23:24:30.228Z,93.17
2018-09-25T23:27:03.664Z,93.45
2018-09-25T23:29:37.157Z,93.56
2018-09-25T23:32:10.733Z,93.57
2018-09-25T23:34:44.320Z,93.23
2018-09-25T23:37:17.813Z,92.92
2018-09-25T23:39:51.329Z,92.84
2018-09-25T23:42:24.544Z,92.82
2018-09-25T23:45:04.909Z,92.86
2018-09-25T23:47:43.890Z,92.64
2018-09-25T23:50:16.012Z,92.91
2018-09-25T23:52:48.308Z,92.76
2018-09-25T23:55:19.735Z,92.92
2018-09-25T23:57:52.048Z,92.93
